Time;durP1;ratioP1;P1;durP2;ratioP2;P2;SDS_P1;SDS_P2;PMS_P1;PMS_P2;Temp;Humidity;BMP_temperature;BMP_pressure;BME280_temperature;BME280_humidity;BME280_pressure;Samples;Min_cycle;Max_cycle;Signal;HPM_P1;HPM_P2
2021/11/15 00:00:32;;;;;;;18.08;12.25;;;;;;;6.53;90.23;100188.31;4991675;28;20448;-62
2021/11/15 00:02:58;;;;;;;22.95;13.38;;;;;;;6.50;90.23;100188.69;4995479;28;20045;-62
2021/11/15 00:05:23;;;;;;;19.23;12.57;;;;;;;6.50;90.04;100183.38;4999444;28;20041;-61
2021/11/15 00:07:49;;;;;;;19.67;13.02;;;;;;;6.47;90.41;100184.59;4997894;28;20390;-62
2021/11/15 00:10:17;;;;;;;18.67;12.70;;;;;;;6.44;90.38;100187.63;5000746;28;20536;-64
2021/11/15 00:12:51;;;;;;;19.80;11.18;;;;;;;6.47;90.21;100187.25;5002386;28;20545;-62
2021/11/15 00:15:17;;;;;;;19.40;11.73;;;;;;;6.44;90.73;100192.13;5000950;28;20065;-62
2021/11/15 00:17:43;;;;;;;21.45;13.23;;;;;;;6.40;90.85;100198.88;4990410;28;20117;-62
2021/11/15 00:20:09;;;;;;;22.65;13.52;;;;;;;6.41;91.27;100195.16;4999456;28;20050;-62
2021/11/15 00:22:34;;;;;;;19.95;11.82;;;;;;;6.40;90.80;100197.00;5000445;28;20109;-60
2021/11/15 00:25:00;;;;;;;21.23;12.90;;;;;;;6.40;91.01;100190.88;5004104;28;20045;-62
2021/11/15 00:27:25;;;;;;;23.35;13.73;;;;;;;6.40;90.84;100196.19;4999684;28;20496;-62
2021/11/15 00:29:51;;;;;;;20.17;13.40;;;;;;;6.35;91.67;100185.31;4999428;28;20553;-62
2021/11/15 00:32:16;;;;;;;23.92;13.80;;;;;;;6.34;91.70;100192.47;4999338;28;20408;-61
2021/11/15 00:34:41;;;;;;;21.55;14.65;;;;;;;6.36;91.61;100186.94;4998730;28;20045;-61
2021/11/15 00:37:07;;;;;;;19.48;12.70;;;;;;;6.33;92.01;100190.81;5000260;28;20601;-61
2021/11/15 00:39:32;;;;;;;23.75;14.18;;;;;;;6.30;92.46;100183.22;5003606;28;20120;-61
2021/11/15 00:41:58;;;;;;;24.80;14.43;;;;;;;6.26;93.06;100182.78;5002211;28;20416;-63
2021/11/15 00:44:24;;;;;;;30.02;13.98;;;;;;;6.22;92.86;100178.84;5003331;28;20096;-62
2021/11/15 00:46:49;;;;;;;21.95;13.82;;;;;;;6.23;93.22;100172.50;4994176;28;20054;-62
2021/11/15 00:49:15;;;;;;;25.08;14.05;;;;;;;6.22;93.09;100183.34;4993459;28;20443;-62
2021/11/15 00:51:40;;;;;;;22.65;14.32;;;;;;;6.21;93.59;100182.50;4991960;28;20092;-61
2021/11/15 00:54:06;;;;;;;24.10;14.82;;;;;;;6.22;93.78;100189.50;4996988;28;20038;-62
2021/11/15 00:56:31;;;;;;;22.90;14.45;;;;;;;6.22;93.91;100184.16;4999248;28;20065;-62
2021/11/15 00:58:56;;;;;;;26.45;14.45;;;;;;;6.23;93.67;100188.47;5003622;28;20037;-62
2021/11/15 01:01:22;;;;;;;26.08;15.80;;;;;;;6.19;93.67;100186.38;4998165;28;20185;-61
2021/11/15 01:03:47;;;;;;;22.98;13.85;;;;;;;6.20;93.94;100188.84;4998216;28;20038;-62
2021/11/15 01:06:13;;;;;;;23.98;14.35;;;;;;;6.22;93.70;100184.16;4994912;28;20107;-62
2021/11/15 01:08:38;;;;;;;22.90;14.15;;;;;;;6.21;92.83;100184.34;4996288;28;20022;-62
2021/11/15 01:11:05;;;;;;;24.92;13.85;;;;;;;6.16;93.58;100187.56;4998071;28;20042;-62
2021/11/15 01:13:30;;;;;;;19.45;12.48;;;;;;;6.13;93.32;100185.28;5003361;28;20034;-62
2021/11/15 01:15:56;;;;;;;22.98;13.85;;;;;;;6.13;93.85;100189.81;5000862;28;20571;-63
2021/11/15 01:18:21;;;;;;;24.90;13.02;;;;;;;6.11;93.43;100184.66;4992458;28;20431;-60
2021/11/15 01:20:47;;;;;;;22.25;13.90;;;;;;;6.10;93.44;100187.53;4999759;28;20041;-62
2021/11/15 01:23:12;;;;;;;22.70;14.25;;;;;;;6.11;93.46;100183.84;5001545;28;20038;-62
2021/11/15 01:25:38;;;;;;;19.88;13.32;;;;;;;6.13;93.11;100184.47;5002258;28;20064;-63
2021/11/15 01:28:03;;;;;;;19.08;11.70;;;;;;;6.14;92.32;100183.44;4993360;28;20704;-62
2021/11/15 01:30:29;;;;;;;21.67;14.50;;;;;;;6.16;92.49;100179.59;5005106;28;20052;-62
2021/11/15 01:32:54;;;;;;;22.48;13.63;;;;;;;6.12;92.58;100181.00;5006881;28;20025;-62
2021/11/15 01:35:20;;;;;;;18.05;12.13;;;;;;;6.15;92.29;100188.59;5000570;28;20041;-62
2021/11/15 01:37:46;;;;;;;18.98;12.80;;;;;;;6.16;91.86;100179.59;5003875;28;20030;-62
2021/11/15 01:40:13;;;;;;;21.00;12.73;;;;;;;6.12;91.69;100181.00;5002684;28;20037;-62
2021/11/15 01:42:39;;;;;;;21.80;13.68;;;;;;;6.12;91.67;100181.00;4998302;28;20030;-62
2021/11/15 01:45:04;;;;;;;21.98;13.02;;;;;;;6.11;91.86;100184.66;5000505;28;20483;-62
2021/11/15 01:47:30;;;;;;;20.77;13.95;;;;;;;6.13;91.83;100182.63;5005649;28;20034;-63
2021/11/15 01:49:55;;;;;;;20.10;12.57;;;;;;;6.17;91.94;100172.44;5005163;28;20032;-62
2021/11/15 01:52:21;;;;;;;19.13;12.73;;;;;;;6.15;91.48;100174.47;5003810;28;21111;-62
2021/11/15 01:54:46;;;;;;;22.55;13.30;;;;;;;6.12;91.72;100170.34;4999434;28;20034;-62
2021/11/15 01:57:14;;;;;;;23.67;13.73;;;;;;;6.17;91.51;100170.59;5006334;28;20437;-62
2021/11/15 01:59:39;;;;;;;21.15;13.07;;;;;;;6.20;91.93;100169.41;5006903;28;20095;-62
2021/11/15 02:02:05;;;;;;;18.70;12.70;;;;;;;6.11;92.12;100170.53;4997743;28;20486;-63
2021/11/15 02:04:30;;;;;;;19.98;12.20;;;;;;;6.09;92.19;100165.41;5002896;28;20026;-63
2021/11/15 02:06:56;;;;;;;20.23;13.13;;;;;;;6.14;91.80;100175.47;5005445;28;20520;-63
2021/11/15 02:09:21;;;;;;;21.20;13.63;;;;;;;6.09;92.40;100175.22;5004806;28;20118;-62
2021/11/15 02:11:46;;;;;;;22.30;14.00;;;;;;;6.15;92.75;100169.97;5004322;28;20037;-62
2021/11/15 02:14:12;;;;;;;23.88;14.30;;;;;;;6.07;92.98;100175.41;4999293;28;20029;-63
2021/11/15 02:16:38;;;;;;;23.35;14.00;;;;;;;6.04;93.53;100167.78;5000845;28;20457;-63
2021/11/15 02:19:03;;;;;;;23.40;15.05;;;;;;;6.01;93.56;100168.19;5003963;28;20022;-62
2021/11/15 02:21:29;;;;;;;23.95;14.90;;;;;;;6.02;93.78;100170.66;5005214;28;20045;-62
2021/11/15 02:23:54;;;;;;;29.05;16.70;;;;;;;6.01;94.00;100165.53;5001204;28;20330;-63
2021/11/15 02:26:21;;;;;;;24.17;15.68;;;;;;;6.01;94.02;100174.31;5011594;28;20061;-62
2021/11/15 02:28:47;;;;;;;24.83;15.13;;;;;;;6.00;93.98;100166.53;4992374;28;20030;-62
2021/11/15 02:31:15;;;;;;;25.15;14.43;;;;;;;6.02;93.23;100161.88;5003255;28;20088;-62
2021/11/15 02:33:41;;;;;;;23.67;14.48;;;;;;;6.02;93.25;100169.84;4997814;28;20488;-62
2021/11/15 02:36:06;;;;;;;26.00;15.57;;;;;;;6.07;93.02;100156.78;5003843;28;20038;-63
2021/11/15 02:38:32;;;;;;;23.30;13.80;;;;;;;6.06;92.66;100160.44;5001654;28;20022;-62
2021/11/15 02:40:57;;;;;;;25.38;15.13;;;;;;;6.02;92.66;100154.69;4987576;28;20161;-62
2021/11/15 02:43:23;;;;;;;23.08;13.57;;;;;;;6.06;91.76;100155.13;4999371;28;20384;-62
2021/11/15 02:45:49;;;;;;;25.55;15.63;;;;;;;6.01;92.57;100157.53;4995845;28;20612;-62
2021/11/15 02:48:18;;;;;;;22.67;14.25;;;;;;;6.02;91.19;100156.53;5006261;28;20046;-62
2021/11/15 02:50:43;;;;;;;24.88;15.27;;;;;;;6.04;91.51;100154.47;4994877;28;20104;-62
2021/11/15 02:53:09;;;;;;;24.88;14.68;;;;;;;5.97;91.41;100151.78;5005259;28;20038;-62
2021/11/15 02:55:34;;;;;;;27.38;14.43;;;;;;;6.02;91.22;100156.53;5005349;28;20096;-62
2021/11/15 02:58:00;;;;;;;26.10;14.40;;;;;;;6.00;91.86;100150.56;4998190;28;20419;-62
2021/11/15 03:00:29;;;;;;;25.73;15.05;;;;;;;6.00;91.79;100154.06;4996780;28;20490;-62
2021/11/15 03:02:55;;;;;;;25.83;15.10;;;;;;;5.97;91.90;100156.28;5005371;28;20048;-62
2021/11/15 03:05:22;;;;;;;26.35;15.13;;;;;;;6.00;91.61;100156.72;4993222;28;20050;-62
2021/11/15 03:07:48;;;;;;;28.40;15.88;;;;;;;5.97;91.86;100164.28;4997199;28;20037;-63
2021/11/15 03:10:13;;;;;;;26.48;15.20;;;;;;;5.97;92.13;100158.94;5004062;28;20017;-62
2021/11/15 03:12:39;;;;;;;27.48;16.73;;;;;;;5.94;92.83;100151.31;5001079;28;20077;-62
2021/11/15 03:15:05;;;;;;;27.27;16.05;;;;;;;5.97;93.02;100149.13;5003502;28;20100;-62
2021/11/15 03:17:30;;;;;;;30.17;16.77;;;;;;;5.92;93.17;100148.84;5004435;28;20156;-62
2021/11/15 03:19:55;;;;;;;28.73;16.92;;;;;;;5.91;93.21;100146.34;5000621;28;20053;-63
2021/11/15 03:22:21;;;;;;;34.90;18.88;;;;;;;5.91;93.67;100146.34;5004689;28;20066;-62
2021/11/15 03:24:46;;;;;;;33.58;18.60;;;;;;;5.91;93.41;100152.50;5012198;28;20465;-62
2021/11/15 03:27:12;;;;;;;35.53;20.20;;;;;;;5.91;93.44;100146.34;5004194;28;20037;-62
2021/11/15 03:29:37;;;;;;;30.65;18.67;;;;;;;5.96;93.62;100149.28;5003285;28;20404;-62
2021/11/15 03:32:03;;;;;;;36.63;18.45;;;;;;;5.94;93.57;100152.16;5004958;28;20045;-62
2021/11/15 03:34:28;;;;;;;33.47;17.73;;;;;;;5.97;93.87;100142.97;5005288;28;20555;-62
2021/11/15 03:36:54;;;;;;;29.38;17.10;;;;;;;5.98;93.65;100148.09;5002375;28;20064;-62
2021/11/15 03:39:19;;;;;;;35.35;17.38;;;;;;;5.90;94.13;100153.50;5003376;28;20624;-62
2021/11/15 03:41:45;;;;;;;33.58;17.58;;;;;;;5.90;93.75;100150.03;4997874;28;20045;-62
2021/11/15 03:44:10;;;;;;;34.05;18.13;;;;;;;5.89;93.65;100151.88;4996699;28;20088;-62
2021/11/15 03:46:36;;;;;;;31.40;17.50;;;;;;;5.84;93.58;100155.09;5002809;28;20041;-62
2021/11/15 03:49:02;;;;;;;33.10;17.67;;;;;;;5.86;93.90;100159.41;5002820;28;20030;-62
2021/11/15 03:51:27;;;;;;;35.05;18.77;;;;;;;5.87;93.88;100156.56;4993923;28;20258;-62
2021/11/15 03:53:53;;;;;;;31.50;15.70;;;;;;;5.84;93.16;100154.25;5003124;28;20464;-62
2021/11/15 03:56:22;;;;;;;30.05;17.05;;;;;;;5.83;93.35;100150.78;4999898;28;20432;-62
2021/11/15 03:58:48;;;;;;;28.10;16.73;;;;;;;5.80;93.96;100151.16;4998644;28;20038;-62
2021/11/15 04:01:13;;;;;;;29.55;16.88;;;;;;;5.79;94.04;100144.22;4996376;28;20048;-62
2021/11/15 04:03:40;;;;;;;31.02;16.98;;;;;;;5.80;93.80;100155.66;4993985;28;20725;-62
2021/11/15 04:06:22;;;;;;;29.92;16.52;;;;;;;5.87;93.90;100153.91;5003923;28;20068;-62
2021/11/15 04:08:47;;;;;;;33.97;17.88;;;;;;;5.82;93.47;100149.16;5004339;28;20057;-63
2021/11/15 04:11:13;;;;;;;27.42;15.73;;;;;;;5.83;94.29;100149.97;5004065;28;20045;-62
2021/11/15 04:13:40;;;;;;;27.27;15.35;;;;;;;5.78;94.31;100150.53;4998408;28;20026;-62
2021/11/15 04:16:07;;;;;;;31.05;16.98;;;;;;;5.76;94.44;100154.38;4998334;28;20057;-62
2021/11/15 04:18:36;;;;;;;28.35;15.45;;;;;;;5.87;93.72;100150.44;4986363;28;20030;-62
2021/11/15 04:21:02;;;;;;;33.17;16.63;;;;;;;5.80;94.23;100145.84;4993091;28;20038;-62
2021/11/15 04:23:28;;;;;;;29.58;15.25;;;;;;;5.83;93.76;100144.63;5000833;28;20034;-62
2021/11/15 04:25:53;;;;;;;31.50;17.50;;;;;;;5.79;94.63;100138.88;5000129;28;20041;-62
2021/11/15 04:28:19;;;;;;;34.95;17.20;;;;;;;5.79;94.54;100138.88;4992654;28;20461;-62
2021/11/15 04:30:44;;;;;;;27.13;15.55;;;;;;;5.80;94.34;100132.53;4992409;28;20046;-62
2021/11/15 04:33:10;;;;;;;28.02;16.02;;;;;;;5.83;94.30;100124.16;5003497;28;20041;-62
2021/11/15 04:35:35;;;;;;;30.02;15.20;;;;;;;5.82;94.04;100127.84;5002619;28;20054;-62
2021/11/15 04:38:01;;;;;;;28.95;15.95;;;;;;;5.80;94.05;100129.88;4998774;28;20044;-62
2021/11/15 04:40:26;;;;;;;30.95;15.73;;;;;;;5.82;94.08;100114.56;4998430;28;20054;-61
2021/11/15 04:42:52;;;;;;;32.28;16.40;;;;;;;5.80;94.18;100124.56;4999267;28;20108;-62
2021/11/15 04:45:17;;;;;;;31.70;16.50;;;;;;;5.89;94.38;100122.63;4995694;28;20034;-61
2021/11/15 04:47:43;;;;;;;31.98;16.95;;;;;;;5.74;94.84;100120.00;5003289;28;20034;-62
2021/11/15 04:50:08;;;;;;;31.15;17.48;;;;;;;5.71;95.45;100124.88;4996657;28;20050;-61
2021/11/15 04:52:34;;;;;;;35.20;17.83;;;;;;;5.70;95.64;100124.03;4999562;28;20065;-62
2021/11/15 04:54:59;;;;;;;30.70;17.20;;;;;;;5.76;95.14;100117.97;4996771;28;20041;-62
2021/11/15 04:57:25;;;;;;;35.22;17.52;;;;;;;5.76;95.07;100117.97;5003060;28;20045;-62
2021/11/15 04:59:50;;;;;;;31.50;16.05;;;;;;;5.80;94.91;100108.59;5003823;28;20033;-62
2021/11/15 05:02:16;;;;;;;32.65;17.08;;;;;;;5.73;95.25;100113.03;4996900;28;20373;-63
2021/11/15 05:04:41;;;;;;;31.38;17.02;;;;;;;5.74;95.24;100109.38;4998666;28;20392;-62
2021/11/15 05:07:07;;;;;;;32.00;17.08;;;;;;;5.75;94.98;100103.03;5001063;28;20042;-61
2021/11/15 05:09:34;;;;;;;30.45;16.05;;;;;;;5.76;96.18;100112.63;4995212;28;20033;-62
2021/11/15 05:11:59;;;;;;;30.08;17.02;;;;;;;5.75;94.98;100116.31;5002207;28;20084;-61
2021/11/15 05:14:25;;;;;;;33.30;16.20;;;;;;;5.70;95.20;100120.56;4995325;28;20069;-61
2021/11/15 05:16:50;;;;;;;29.08;15.68;;;;;;;5.78;94.79;100118.59;4996887;28;20034;-61
2021/11/15 05:19:16;;;;;;;32.10;17.05;;;;;;;5.74;94.85;100114.69;4997732;28;20034;-61
2021/11/15 05:21:41;;;;;;;29.30;15.65;;;;;;;5.73;95.94;100121.00;4999539;28;20120;-62
2021/11/15 05:24:06;;;;;;;25.48;13.02;;;;;;;5.87;93.93;100118.50;5003504;28;20025;-61
2021/11/15 05:26:32;;;;;;;29.17;14.48;;;;;;;5.78;93.88;100125.75;5001934;28;20459;-62
2021/11/15 05:28:57;;;;;;;26.83;15.07;;;;;;;5.78;94.00;100121.25;5001352;28;20037;-61
2021/11/15 05:31:24;;;;;;;31.35;15.60;;;;;;;5.76;94.49;100115.28;5001957;28;20045;-62
2021/11/15 05:33:49;;;;;;;29.60;16.60;;;;;;;5.79;94.44;100122.94;4998720;28;20037;-62
2021/11/15 05:36:14;;;;;;;29.70;16.73;;;;;;;5.77;94.44;100124.13;4992016;28;20336;-62
2021/11/15 05:38:40;;;;;;;32.80;16.30;;;;;;;5.73;94.39;100123.66;4995845;28;20042;-62
2021/11/15 05:41:05;;;;;;;38.58;17.30;;;;;;;5.75;94.61;100126.97;4998548;28;20046;-61
2021/11/15 05:43:31;;;;;;;34.42;16.83;;;;;;;5.77;94.64;100130.25;4996478;28;20053;-61
2021/11/15 05:45:56;;;;;;;30.00;16.48;;;;;;;5.74;94.57;100127.13;4994270;28;20061;-61
2021/11/15 05:48:22;;;;;;;34.20;16.65;;;;;;;5.75;94.96;100126.97;5000133;28;20037;-62
2021/11/15 05:50:47;;;;;;;28.55;15.38;;;;;;;5.70;95.02;100124.03;4995250;28;20072;-61
2021/11/15 05:53:15;;;;;;;30.83;16.60;;;;;;;5.72;95.22;100124.69;4999657;28;20491;-61
2021/11/15 05:55:41;;;;;;;34.15;17.02;;;;;;;5.71;94.96;100120.38;5000845;28;20045;-61
2021/11/15 05:58:06;;;;;;;34.95;17.38;;;;;;;5.67;95.52;100124.44;4998771;28;20405;-61
2021/11/15 06:00:32;;;;;;;33.35;17.17;;;;;;;5.67;96.07;100124.44;5001239;28;20087;-62
2021/11/15 06:02:57;;;;;;;32.03;17.45;;;;;;;5.67;95.72;100124.44;5002496;28;20045;-62
2021/11/15 06:05:23;;;;;;;32.53;17.58;;;;;;;5.65;95.54;100123.78;5002525;28;20507;-62
2021/11/15 06:07:49;;;;;;;35.75;17.27;;;;;;;5.67;95.41;100126.28;5001718;28;20547;-62
2021/11/15 06:10:14;;;;;;;54.80;32.00;;;;;;;5.71;95.71;100131.00;5001968;28;20037;-62
2021/11/15 06:12:40;;;;;;;39.33;23.08;;;;;;;5.74;94.72;100124.47;4996907;28;20048;-61
2021/11/15 06:15:06;;;;;;;32.20;17.27;;;;;;;5.72;94.94;100135.31;4992034;28;20106;-61
2021/11/15 06:17:31;;;;;;;32.92;18.75;;;;;;;5.70;95.27;100131.22;4999970;28;20026;-62
2021/11/15 06:19:57;;;;;;;35.35;20.83;;;;;;;5.66;95.14;100133.41;5004560;28;20046;-66
2021/11/15 06:22:22;;;;;;;33.88;17.55;;;;;;;5.72;94.79;100134.50;4997305;28;20046;-62
2021/11/15 06:24:48;;;;;;;31.92;16.48;;;;;;;5.69;94.96;100134.88;5003239;28;20103;-62
2021/11/15 06:27:17;;;;;;;29.67;16.20;;;;;;;5.71;94.83;100131.00;5001388;28;20047;-61
2021/11/15 06:29:43;;;;;;;35.38;16.38;;;;;;;5.70;94.75;100133.88;4999406;28;20049;-63
2021/11/15 06:32:09;;;;;;;29.92;15.95;;;;;;;5.71;94.72;100136.31;5003621;28;20042;-63
2021/11/15 06:34:34;;;;;;;34.75;17.80;;;;;;;5.70;94.60;100136.53;5005045;28;20030;-63
2021/11/15 06:37:00;;;;;;;33.22;17.38;;;;;;;5.71;94.89;100132.84;5002832;28;20313;-63
2021/11/15 06:39:26;;;;;;;32.90;17.95;;;;;;;5.69;94.26;100133.06;4997796;28;20045;-63
2021/11/15 06:41:54;;;;;;;34.08;17.67;;;;;;;5.70;94.13;100132.03;5003745;28;20412;-62
2021/11/15 06:44:22;;;;;;;29.70;16.15;;;;;;;5.74;93.62;100133.31;5000507;28;20038;-63
2021/11/15 06:46:48;;;;;;;34.70;18.45;;;;;;;5.71;93.49;100135.50;5005121;28;20447;-62
2021/11/15 06:49:13;;;;;;;44.20;22.13;;;;;;;5.71;93.80;100140.81;5004023;28;20034;-62
2021/11/15 06:51:38;;;;;;;47.05;22.63;;;;;;;5.71;93.80;100136.31;5002259;28;20049;-62
2021/11/15 06:54:04;;;;;;;31.60;17.50;;;;;;;5.72;94.24;100142.50;4992830;28;20451;-62
2021/11/15 06:56:30;;;;;;;34.67;16.98;;;;;;;5.73;94.00;100147.59;5002483;28;20041;-62
2021/11/15 06:58:55;;;;;;;35.65;19.35;;;;;;;5.69;94.08;100154.34;5005205;28;20041;-62
2021/11/15 07:01:21;;;;;;;44.95;21.27;;;;;;;5.69;94.65;100151.66;5002365;28;20061;-62
2021/11/15 07:03:47;;;;;;;37.50;22.00;;;;;;;5.76;94.33;100154.38;4997825;28;20052;-62
2021/11/15 07:06:12;;;;;;;41.28;20.58;;;;;;;5.71;94.16;100154.94;4999500;28;20042;-62
2021/11/15 07:08:37;;;;;;;37.75;20.25;;;;;;;5.70;94.34;100155.97;5005092;28;20025;-63
2021/11/15 07:11:03;;;;;;;35.90;18.65;;;;;;;5.68;94.45;100159.81;5005278;28;20092;-61
2021/11/15 07:13:28;;;;;;;35.20;19.45;;;;;;;5.70;94.27;100161.28;5001586;28;20042;-62
2021/11/15 07:15:54;;;;;;;33.83;17.75;;;;;;;5.67;94.30;100160.84;5003327;28;20050;-61
2021/11/15 07:18:19;;;;;;;39.92;20.55;;;;;;;5.67;94.67;100167.00;5016247;28;20033;-61
2021/11/15 07:20:45;;;;;;;37.00;18.88;;;;;;;5.68;94.25;100167.81;5004581;28;20080;-62
2021/11/15 07:23:10;;;;;;;34.60;19.05;;;;;;;5.70;94.02;100166.59;5002867;28;20487;-62
2021/11/15 07:25:36;;;;;;;31.75;17.90;;;;;;;5.68;94.23;100173.94;4998532;28;20405;-62
2021/11/15 07:28:01;;;;;;;36.10;18.20;;;;;;;5.68;94.35;100181.91;5001065;28;20117;-62
2021/11/15 07:30:27;;;;;;;32.40;17.60;;;;;;;5.70;94.26;100179.91;5001182;28;20356;-62
2021/11/15 07:32:52;;;;;;;28.48;15.95;;;;;;;5.69;93.80;100186.25;5001396;28;20053;-62
2021/11/15 07:35:18;;;;;;;30.67;17.27;;;;;;;5.68;93.38;100181.91;5000122;28;20113;-62
2021/11/15 07:37:44;;;;;;;31.05;17.30;;;;;;;5.70;93.29;100181.75;5003841;28;20109;-62
2021/11/15 07:40:10;;;;;;;36.28;18.23;;;;;;;5.70;93.83;100182.56;4994639;28;20037;-61
2021/11/15 07:42:36;;;;;;;34.00;17.77;;;;;;;5.70;93.76;100182.56;5000969;28;20033;-62
2021/11/15 07:45:01;;;;;;;34.05;18.02;;;;;;;5.70;93.00;100177.25;4998774;28;20691;-61
2021/11/15 07:47:27;;;;;;;37.30;18.13;;;;;;;5.73;93.68;100173.38;5000319;28;20065;-62
2021/11/15 07:49:52;;;;;;;32.63;17.75;;;;;;;5.74;93.68;100173.22;5004439;28;20026;-62
2021/11/15 07:52:18;;;;;;;32.67;18.50;;;;;;;5.68;94.00;100168.63;5000565;28;20085;-62
2021/11/15 07:54:44;;;;;;;35.08;18.08;;;;;;;5.69;94.22;100170.28;5002733;28;20044;-62
2021/11/15 07:57:10;;;;;;;39.80;19.75;;;;;;;5.74;94.00;100167.88;4987931;28;20050;-62
2021/11/15 07:59:36;;;;;;;34.95;19.13;;;;;;;5.68;93.79;100168.63;4998385;28;20053;-62
2021/11/15 08:02:02;;;;;;;36.33;19.75;;;;;;;5.70;93.98;100171.09;4995267;28;20045;-62
2021/11/15 08:04:27;;;;;;;36.90;19.58;;;;;;;5.73;94.16;100163.56;5001244;28;20025;-62
2021/11/15 08:06:53;;;;;;;34.95;17.25;;;;;;;5.69;93.95;100159.66;5002569;28;20045;-62
2021/11/15 08:09:18;;;;;;;37.85;18.42;;;;;;;5.64;93.30;100167.34;4999045;28;20025;-62
2021/11/15 08:11:44;;;;;;;38.15;17.13;;;;;;;5.66;93.38;100170.66;5003525;28;20042;-62
2021/11/15 08:14:10;;;;;;;30.77;17.02;;;;;;;5.67;93.16;100174.97;4999923;28;20034;-62
2021/11/15 08:16:35;;;;;;;30.42;16.20;;;;;;;5.63;92.82;100171.03;4997146;28;21198;-62
2021/11/15 08:19:01;;;;;;;30.52;17.60;;;;;;;5.66;92.99;100175.13;4998710;28;20030;-62
2021/11/15 08:21:26;;;;;;;31.30;16.15;;;;;;;5.67;93.37;100171.50;4995387;28;20043;-62
2021/11/15 08:23:52;;;;;;;28.63;16.00;;;;;;;5.67;92.84;100172.31;5007680;28;20042;-62
2021/11/15 08:26:36;;;;;;;34.20;17.55;;;;;;;5.67;93.62;100169.66;5000039;28;20077;-62
2021/11/15 08:29:06;;;;;;;31.98;17.13;;;;;;;5.69;93.57;100164.13;5003195;28;20120;-62
2021/11/15 08:31:32;;;;;;;28.57;16.43;;;;;;;5.72;93.81;100169.91;4998275;28;20412;-62
2021/11/15 08:33:57;;;;;;;33.15;17.77;;;;;;;5.72;94.10;100175.22;5001480;28;20026;-62
2021/11/15 08:36:23;;;;;;;31.50;16.73;;;;;;;5.70;93.46;100173.75;4980458;28;20038;-62
2021/11/15 08:39:04;;;;;;;36.97;16.98;;;;;;;5.70;93.95;100169.28;4998052;28;20109;-62
2021/11/15 08:41:31;;;;;;;33.97;17.45;;;;;;;5.71;93.28;100176.22;4991890;28;20751;-62
2021/11/15 08:43:57;;;;;;;35.00;18.42;;;;;;;5.72;93.49;100169.09;5003095;28;20642;-62
2021/11/15 08:46:24;;;;;;;34.85;18.10;;;;;;;5.79;93.38;100167.31;5000987;28;20096;-62
2021/11/15 08:48:49;;;;;;;30.13;16.88;;;;;;;5.77;92.95;100162.19;4997754;28;20030;-65
2021/11/15 08:51:16;;;;;;;26.65;17.20;;;;;;;5.71;93.10;100175.41;5002815;28;20049;-62
2021/11/15 08:53:41;;;;;;;26.75;15.45;;;;;;;5.69;92.77;100164.13;5001339;28;20021;-62
2021/11/15 08:56:07;;;;;;;27.27;15.80;;;;;;;5.63;93.10;100176.34;4991073;28;20616;-62
2021/11/15 08:58:33;;;;;;;35.08;18.33;;;;;;;5.65;92.50;100176.97;4992711;28;20632;-62
2021/11/15 09:00:58;;;;;;;21.17;12.52;;;;;;;5.60;91.88;100192.69;4996495;28;20038;-62
2021/11/15 09:03:24;;;;;;;22.75;13.32;;;;;;;5.57;91.63;100180.59;4997047;28;20034;-62
2021/11/15 09:05:50;;;;;;;24.17;14.13;;;;;;;5.49;91.33;100180.69;4991712;28;20034;-62
2021/11/15 09:08:17;;;;;;;21.45;12.90;;;;;;;5.49;91.55;100190.47;5003310;28;20029;-61
2021/11/15 09:10:42;;;;;;;27.48;13.40;;;;;;;5.36;91.55;100191.97;4993554;28;20150;-62
2021/11/15 09:13:08;;;;;;;19.13;11.60;;;;;;;5.40;91.67;100187.13;5006035;28;20038;-62
2021/11/15 09:15:33;;;;;;;28.35;13.93;;;;;;;5.37;92.06;100185.66;4994941;28;20124;-61
2021/11/15 09:17:59;;;;;;;21.50;13.05;;;;;;;5.37;91.62;100183.00;5000973;28;20033;-62
2021/11/15 09:20:25;;;;;;;22.73;13.60;;;;;;;5.36;92.03;100176.00;4997309;28;20145;-62
2021/11/15 09:22:52;;;;;;;22.23;13.18;;;;;;;5.40;91.83;100179.97;5000811;28;20104;-62
2021/11/15 09:25:17;;;;;;;24.88;13.50;;;;;;;5.42;90.92;100179.78;5002868;28;20468;-61
2021/11/15 09:27:42;;;;;;;21.15;11.40;;;;;;;5.45;90.98;100175.94;5002109;28;20033;-61
2021/11/15 09:30:09;;;;;;;25.40;13.35;;;;;;;5.38;91.03;100179.31;4998725;28;20038;-61
2021/11/15 09:32:34;;;;;;;22.10;13.52;;;;;;;5.41;90.82;100178.94;4997184;28;20053;-62
2021/11/15 09:35:00;;;;;;;30.25;13.80;;;;;;;5.44;90.60;100172.41;4998255;28;20400;-62
2021/11/15 09:37:27;;;;;;;24.48;13.25;;;;;;;5.41;90.64;100178.94;5002038;28;20045;-61
2021/11/15 09:39:55;;;;;;;23.85;14.07;;;;;;;5.50;90.42;100181.50;4997559;28;20032;-62
2021/11/15 09:42:20;;;;;;;20.48;13.52;;;;;;;5.48;90.39;100180.88;4987323;28;20061;-62
2021/11/15 09:44:46;;;;;;;22.52;13.55;;;;;;;5.51;89.79;100169.84;4999522;28;20649;-62
2021/11/15 09:47:11;;;;;;;24.65;13.30;;;;;;;5.47;89.95;100173.91;4997539;28;20876;-62
2021/11/15 09:49:37;;;;;;;22.02;13.82;;;;;;;5.56;90.50;100170.13;4998035;28;20116;-62
2021/11/15 09:52:02;;;;;;;22.38;13.10;;;;;;;5.59;90.06;100169.72;4999602;28;20369;-62
2021/11/15 09:54:28;;;;;;;28.40;16.00;;;;;;;5.69;90.41;100180.94;5007032;28;20042;-62
2021/11/15 09:56:53;;;;;;;20.88;12.93;;;;;;;5.58;89.79;100178.75;5000476;28;20042;-62
2021/11/15 09:59:19;;;;;;;43.20;21.45;;;;;;;5.56;90.28;100178.09;5006973;28;20049;-62
2021/11/15 10:01:46;;;;;;;25.20;15.88;;;;;;;5.54;90.23;100188.09;5004188;28;20491;-62
2021/11/15 10:04:14;;;;;;;18.23;11.30;;;;;;;5.52;90.30;100184.81;5003615;28;20116;-62
2021/11/15 10:06:46;;;;;;;18.40;11.60;;;;;;;5.49;89.76;100193.13;5002044;28;20484;-62
2021/11/15 10:09:11;;;;;;;18.33;11.50;;;;;;;5.50;90.10;100187.66;5006781;28;20080;-62
2021/11/15 10:11:48;;;;;;;20.52;10.88;;;;;;;5.49;90.61;100195.81;5002612;28;20038;-61
2021/11/15 10:14:14;;;;;;;20.92;12.50;;;;;;;5.51;90.96;100188.47;5002119;28;20179;-62
2021/11/15 10:16:40;;;;;;;24.92;14.98;;;;;;;5.47;91.54;100188.03;5000115;28;20054;-62
2021/11/15 10:19:07;;;;;;;27.67;17.52;;;;;;;5.55;91.58;100195.06;5004657;28;20069;-62
2021/11/15 10:21:34;;;;;;;21.33;14.10;;;;;;;5.50;91.93;100192.16;4999315;28;20069;-61
2021/11/15 10:24:04;;;;;;;26.00;15.13;;;;;;;5.52;91.41;100190.94;5006382;28;20395;-61
2021/11/15 10:26:31;;;;;;;24.92;13.38;;;;;;;5.53;91.23;100187.28;4993950;28;20116;-61
2021/11/15 10:29:00;;;;;;;23.85;13.57;;;;;;;5.51;91.17;100191.13;5006509;28;20103;-62
2021/11/15 10:31:32;;;;;;;24.13;13.43;;;;;;;5.50;91.05;100189.50;5005457;28;20121;-64
2021/11/15 10:33:58;;;;;;;23.15;14.05;;;;;;;5.50;91.15;100192.16;5000778;28;20077;-63
2021/11/15 10:36:51;;;;;;;23.55;14.30;;;;;;;5.55;91.02;100189.75;5001239;28;20046;-62
2021/11/15 10:39:20;;;;;;;23.02;12.02;;;;;;;5.50;91.60;100184.16;4997887;28;20739;-63
2021/11/15 10:42:00;;;;;;;25.42;14.93;;;;;;;5.47;91.57;100173.91;5000845;28;20045;-62
2021/11/15 10:44:26;;;;;;;25.65;14.93;;;;;;;5.43;92.22;100169.97;5004423;28;20034;-63
2021/11/15 10:46:52;;;;;;;27.92;16.40;;;;;;;5.55;92.08;100163.97;5001635;28;20042;-63
2021/11/15 10:49:18;;;;;;;18.75;11.32;;;;;;;5.33;91.25;100164.94;4994210;28;20018;-62
2021/11/15 10:51:51;;;;;;;19.58;11.82;;;;;;;5.39;91.35;100159.72;4998408;28;20462;-62
2021/11/15 10:57:18;;;;;;;27.35;13.07;;;;;;;5.35;91.65;100153.09;5003348;28;20056;-61
2021/11/15 10:59:44;;;;;;;20.00;10.30;;;;;;;5.34;91.21;100156.78;4993201;28;20088;-61
2021/11/15 11:02:28;;;;;;;22.75;11.98;;;;;;;5.35;91.38;100160.25;4999771;28;20434;-62
2021/11/15 11:05:07;;;;;;;24.80;13.70;;;;;;;5.33;91.41;100165.75;4996621;28;20555;-61
2021/11/15 11:07:34;;;;;;;21.88;11.48;;;;;;;5.40;91.27;100165.84;5002778;28;20135;-62
2021/11/15 11:10:00;;;;;;;20.40;11.98;;;;;;;5.27;91.79;100163.84;4999097;28;20037;-61
2021/11/15 11:12:32;;;;;;;19.42;11.65;;;;;;;5.20;92.59;100160.28;5001048;28;20456;-61
2021/11/15 11:15:39;;;;;;;20.90;11.73;;;;;;;5.24;92.72;100161.56;4999483;28;20030;-61